sensor_id;sensor_type;location;lat;lon;timestamp;pressure;altitude;pressure_sealevel;temperature;humidity
42105;BME280;70664;51.472;5.712;2024-02-21T00:00:56;102109.28;;;16.89;69.29
42105;BME280;70664;51.472;5.712;2024-02-21T00:03:21;102101.53;;;16.86;69.30
42105;BME280;70664;51.472;5.712;2024-02-21T00:05:47;102095.47;;;16.82;69.62
42105;BME280;70664;51.472;5.712;2024-02-21T00:08:13;102098.06;;;16.82;69.20
42105;BME280;70664;51.472;5.712;2024-02-21T00:10:39;102090.28;;;16.81;69.49
42105;BME280;70664;51.472;5.712;2024-02-21T00:13:05;102096.34;;;16.78;69.16
42105;BME280;70664;51.472;5.712;2024-02-21T00:15:31;102093.75;;;16.76;69.30
42105;BME280;70664;51.472;5.712;2024-02-21T00:17:57;102092.91;;;16.74;69.23
42105;BME280;70664;51.472;5.712;2024-02-21T00:20:22;102085.97;;;16.73;69.52
42105;BME280;70664;51.472;5.712;2024-02-21T00:22:48;102086.84;;;16.71;69.31
42105;BME280;70664;51.472;5.712;2024-02-21T00:25:14;102078.19;;;16.69;69.43
42105;BME280;70664;51.472;5.712;2024-02-21T00:27:40;102081.66;;;16.66;69.25
42105;BME280;70664;51.472;5.712;2024-02-21T00:30:06;102086.00;;;16.66;69.65
42105;BME280;70664;51.472;5.712;2024-02-21T00:32:32;102087.72;;;16.63;69.62
42105;BME280;70664;51.472;5.712;2024-02-21T00:35:00;102088.59;;;16.62;69.36
42105;BME280;70664;51.472;5.712;2024-02-21T00:37:27;102079.94;;;16.60;69.26
42105;BME280;70664;51.472;5.712;2024-02-21T00:39:54;102073.88;;;16.58;69.72
42105;BME280;70664;51.472;5.712;2024-02-21T00:42:20;102070.44;;;16.58;69.57
42105;BME280;70664;51.472;5.712;2024-02-21T00:44:47;102068.72;;;16.57;69.31
42105;BME280;70664;51.472;5.712;2024-02-21T00:47:12;102056.56;;;16.54;69.26
42105;BME280;70664;51.472;5.712;2024-02-21T00:49:39;102054.84;;;16.53;69.47
42105;BME280;70664;51.472;5.712;2024-02-21T00:52:04;102053.13;;;16.52;69.18
42105;BME280;70664;51.472;5.712;2024-02-21T00:54:30;102042.75;;;16.51;69.38
42105;BME280;70664;51.472;5.712;2024-02-21T00:56:56;102034.94;;;16.49;69.25
42105;BME280;70664;51.472;5.712;2024-02-21T00:59:22;102027.19;;;16.47;69.18
42105;BME280;70664;51.472;5.712;2024-02-21T01:01:47;102028.91;;;16.47;69.18
42105;BME280;70664;51.472;5.712;2024-02-21T01:04:13;102020.25;;;16.45;69.20
42105;BME280;70664;51.472;5.712;2024-02-21T01:06:39;102021.13;;;16.44;69.08
42105;BME280;70664;51.472;5.712;2024-02-21T01:09:08;102030.66;;;16.43;69.43
42105;BME280;70664;51.472;5.712;2024-02-21T01:11:34;102033.25;;;16.43;69.15
42105;BME280;70664;51.472;5.712;2024-02-21T01:14:00;102032.41;;;16.43;69.16
42105;BME280;70664;51.472;5.712;2024-02-21T01:16:26;102044.50;;;16.41;69.04
42105;BME280;70664;51.472;5.712;2024-02-21T01:18:52;102044.50;;;16.41;69.15
42105;BME280;70664;51.472;5.712;2024-02-21T01:21:17;102039.31;;;16.39;69.25
42105;BME280;70664;51.472;5.712;2024-02-21T01:23:43;102022.00;;;16.38;69.03
42105;BME280;70664;51.472;5.712;2024-02-21T01:26:09;102033.25;;;16.37;69.26
42105;BME280;70664;51.472;5.712;2024-02-21T01:28:38;102017.69;;;16.36;69.15
42105;BME280;70664;51.472;5.712;2024-02-21T01:31:04;102009.88;;;16.34;69.13
42105;BME280;70664;51.472;5.712;2024-02-21T01:33:30;102006.44;;;16.35;69.34
42105;BME280;70664;51.472;5.712;2024-02-21T01:36:04;101999.50;;;16.34;68.95
42105;BME280;70664;51.472;5.712;2024-02-21T01:38:32;101989.13;;;16.31;69.03
42105;BME280;70664;51.472;5.712;2024-02-21T01:40:58;101988.25;;;16.32;69.19
42105;BME280;70664;51.472;5.712;2024-02-21T01:43:24;101983.09;;;16.30;69.30
42105;BME280;70664;51.472;5.712;2024-02-21T01:45:53;101985.72;;;16.29;69.08
42105;BME280;70664;51.472;5.712;2024-02-21T01:48:19;101987.41;;;16.28;68.99
42105;BME280;70664;51.472;5.712;2024-02-21T01:50:46;101985.69;;;16.27;69.03
42105;BME280;70664;51.472;5.712;2024-02-21T01:53:29;101987.44;;;16.27;68.89
42105;BME280;70664;51.472;5.712;2024-02-21T01:55:55;101983.97;;;16.26;68.92
42105;BME280;70664;51.472;5.712;2024-02-21T01:58:22;101985.72;;;16.26;69.29
42105;BME280;70664;51.472;5.712;2024-02-21T02:00:50;101984.84;;;16.24;68.89
42105;BME280;70664;51.472;5.712;2024-02-21T02:03:16;101976.19;;;16.23;68.78
42105;BME280;70664;51.472;5.712;2024-02-21T02:05:51;101979.66;;;16.24;68.95
42105;BME280;70664;51.472;5.712;2024-02-21T02:08:19;101977.94;;;16.23;68.89
42105;BME280;70664;51.472;5.712;2024-02-21T02:10:46;101966.69;;;16.21;68.79
42105;BME280;70664;51.472;5.712;2024-02-21T02:13:12;101972.75;;;16.20;68.85
42105;BME280;70664;51.472;5.712;2024-02-21T02:18:05;101976.19;;;16.17;68.81
42105;BME280;70664;51.472;5.712;2024-02-21T02:20:30;101967.56;;;16.16;68.74
42105;BME280;70664;51.472;5.712;2024-02-21T02:22:59;101961.50;;;16.17;69.09
42105;BME280;70664;51.472;5.712;2024-02-21T02:25:26;101960.63;;;16.15;68.81
42105;BME280;70664;51.472;5.712;2024-02-21T02:27:52;101953.72;;;16.14;68.78
42105;BME280;70664;51.472;5.712;2024-02-21T02:30:18;101958.03;;;16.15;69.03
42105;BME280;70664;51.472;5.712;2024-02-21T02:32:46;101962.38;;;16.13;69.05
42105;BME280;70664;51.472;5.712;2024-02-21T02:35:13;101958.94;;;16.13;68.93
42105;BME280;70664;51.472;5.712;2024-02-21T02:37:39;101940.75;;;16.11;68.96
42105;BME280;70664;51.472;5.712;2024-02-21T02:40:06;101930.38;;;16.11;68.71
42105;BME280;70664;51.472;5.712;2024-02-21T02:42:33;101930.38;;;16.10;68.95
42105;BME280;70664;51.472;5.712;2024-02-21T02:44:58;101931.25;;;16.09;69.04
42105;BME280;70664;51.472;5.712;2024-02-21T02:47:24;101926.91;;;16.09;68.60
42105;BME280;70664;51.472;5.712;2024-02-21T02:49:50;101924.34;;;16.08;68.64
42105;BME280;70664;51.472;5.712;2024-02-21T02:52:17;101929.50;;;16.09;68.77
42105;BME280;70664;51.472;5.712;2024-02-21T02:54:44;101929.53;;;16.08;68.75
42105;BME280;70664;51.472;5.712;2024-02-21T02:57:10;101920.00;;;16.07;68.64
42105;BME280;70664;51.472;5.712;2024-02-21T02:59:36;101915.69;;;16.07;68.74
42105;BME280;70664;51.472;5.712;2024-02-21T03:02:02;101908.75;;;16.06;68.94
42105;BME280;70664;51.472;5.712;2024-02-21T03:04:27;101917.41;;;16.05;68.74
42105;BME280;70664;51.472;5.712;2024-02-21T03:06:53;101916.56;;;16.05;68.73
42105;BME280;70664;51.472;5.712;2024-02-21T03:09:19;101909.66;;;16.02;68.68
42105;BME280;70664;51.472;5.712;2024-02-21T03:11:45;101887.16;;;16.02;68.57
42105;BME280;70664;51.472;5.712;2024-02-21T03:14:10;101896.69;;;16.02;68.79
42105;BME280;70664;51.472;5.712;2024-02-21T03:16:37;101893.22;;;16.01;68.34
42105;BME280;70664;51.472;5.712;2024-02-21T03:19:02;101887.19;;;16.01;68.77
42105;BME280;70664;51.472;5.712;2024-02-21T03:21:29;101882.84;;;16.00;68.62
42105;BME280;70664;51.472;5.712;2024-02-21T03:23:54;101889.75;;;15.99;68.79
42105;BME280;70664;51.472;5.712;2024-02-21T03:26:20;101894.09;;;15.99;68.92
42105;BME280;70664;51.472;5.712;2024-02-21T03:28:46;101890.63;;;15.98;68.55
42105;BME280;70664;51.472;5.712;2024-02-21T03:31:12;101886.31;;;15.97;68.80
42105;BME280;70664;51.472;5.712;2024-02-21T03:33:41;101869.88;;;15.97;68.45
42105;BME280;70664;51.472;5.712;2024-02-21T03:36:13;101871.59;;;15.96;68.79
42105;BME280;70664;51.472;5.712;2024-02-21T03:38:40;101866.44;;;15.95;68.56
42105;BME280;70664;51.472;5.712;2024-02-21T03:41:06;101856.06;;;15.95;68.84
42105;BME280;70664;51.472;5.712;2024-02-21T03:43:31;101849.16;;;15.94;68.67
42105;BME280;70664;51.472;5.712;2024-02-21T03:45:57;101856.94;;;15.94;68.55
42105;BME280;70664;51.472;5.712;2024-02-21T03:48:23;101844.81;;;15.93;68.92
42105;BME280;70664;51.472;5.712;2024-02-21T03:50:49;101842.25;;;15.93;68.85
42105;BME280;70664;51.472;5.712;2024-02-21T03:53:14;101836.16;;;15.92;68.47
42105;BME280;70664;51.472;5.712;2024-02-21T03:55:40;101843.09;;;15.92;68.82
42105;BME280;70664;51.472;5.712;2024-02-21T03:58:06;101845.69;;;15.90;68.55
42105;BME280;70664;51.472;5.712;2024-02-21T04:00:32;101835.31;;;15.90;68.63
42105;BME280;70664;51.472;5.712;2024-02-21T04:02:57;101837.03;;;15.91;68.54
42105;BME280;70664;51.472;5.712;2024-02-21T04:05:23;101834.47;;;15.90;68.48
42105;BME280;70664;51.472;5.712;2024-02-21T04:07:49;101824.09;;;15.90;68.74
42105;BME280;70664;51.472;5.712;2024-02-21T04:10:16;101829.28;;;15.88;68.65
42105;BME280;70664;51.472;5.712;2024-02-21T04:12:42;101829.28;;;15.88;68.67
42105;BME280;70664;51.472;5.712;2024-02-21T04:15:08;101822.38;;;15.87;68.56
42105;BME280;70664;51.472;5.712;2024-02-21T04:17:34;101831.88;;;15.86;68.51
42105;BME280;70664;51.472;5.712;2024-02-21T04:20:05;101833.63;;;15.86;68.54
42105;BME280;70664;51.472;5.712;2024-02-21T04:22:31;101837.03;;;15.85;68.69
42105;BME280;70664;51.472;5.712;2024-02-21T04:25:00;101841.41;;;15.86;68.91
42105;BME280;70664;51.472;5.712;2024-02-21T04:27:26;101850.84;;;15.85;68.75
42105;BME280;70664;51.472;5.712;2024-02-21T04:29:53;101839.63;;;15.83;68.67
42105;BME280;70664;51.472;5.712;2024-02-21T04:32:19;101837.03;;;15.83;68.74
42105;BME280;70664;51.472;5.712;2024-02-21T04:34:44;101842.22;;;15.83;68.37
42105;BME280;70664;51.472;5.712;2024-02-21T04:37:10;101830.13;;;15.82;68.44
42105;BME280;70664;51.472;5.712;2024-02-21T04:39:36;101832.72;;;15.82;68.65
42105;BME280;70664;51.472;5.712;2024-02-21T04:42:02;101834.44;;;15.80;68.75
42105;BME280;70664;51.472;5.712;2024-02-21T04:44:28;101831.00;;;15.80;68.56
42105;BME280;70664;51.472;5.712;2024-02-21T04:46:53;101834.44;;;15.80;68.55
42105;BME280;70664;51.472;5.712;2024-02-21T04:49:19;101824.94;;;15.78;68.62
42105;BME280;70664;51.472;5.712;2024-02-21T04:51:45;101838.78;;;15.80;68.38
42105;BME280;70664;51.472;5.712;2024-02-21T04:54:11;101842.25;;;15.79;68.53
42105;BME280;70664;51.472;5.712;2024-02-21T04:56:37;101838.75;;;15.78;68.78
42105;BME280;70664;51.472;5.712;2024-02-21T04:59:02;101840.50;;;15.78;68.64
42105;BME280;70664;51.472;5.712;2024-02-21T05:01:29;101830.13;;;15.76;68.40
42105;BME280;70664;51.472;5.712;2024-02-21T05:03:54;101829.28;;;15.76;68.38
42105;BME280;70664;51.472;5.712;2024-02-21T05:06:20;101827.53;;;15.76;68.71
42105;BME280;70664;51.472;5.712;2024-02-21T05:08:46;101828.44;;;15.75;68.58
42105;BME280;70664;51.472;5.712;2024-02-21T05:11:13;101825.84;;;15.75;68.44
42105;BME280;70664;51.472;5.712;2024-02-21T05:13:39;101811.16;;;15.74;68.50
42105;BME280;70664;51.472;5.712;2024-02-21T05:16:05;101807.69;;;15.73;68.43
42105;BME280;70664;51.472;5.712;2024-02-21T05:18:32;101806.81;;;15.73;68.74
42105;BME280;70664;51.472;5.712;2024-02-21T05:20:59;101806.81;;;15.75;68.46
42105;BME280;70664;51.472;5.712;2024-02-21T05:23:25;101807.69;;;15.72;68.54
42105;BME280;70664;51.472;5.712;2024-02-21T05:25:51;101804.22;;;15.73;68.66
42105;BME280;70664;51.472;5.712;2024-02-21T05:28:17;101795.59;;;15.69;68.79
42105;BME280;70664;51.472;5.712;2024-02-21T05:30:42;101795.59;;;15.71;68.40
42105;BME280;70664;51.472;5.712;2024-02-21T05:33:09;101787.81;;;15.71;68.34
42105;BME280;70664;51.472;5.712;2024-02-21T05:35:35;101774.84;;;15.71;68.57
42105;BME280;70664;51.472;5.712;2024-02-21T05:38:01;101773.97;;;15.70;68.62
42105;BME280;70664;51.472;5.712;2024-02-21T05:40:32;101767.94;;;15.68;68.59
42105;BME280;70664;51.472;5.712;2024-02-21T05:42:57;101771.41;;;15.69;68.59
42105;BME280;70664;51.472;5.712;2024-02-21T05:45:23;101761.88;;;15.69;68.61
42105;BME280;70664;51.472;5.712;2024-02-21T05:47:49;101767.09;;;15.68;68.31
42105;BME280;70664;51.472;5.712;2024-02-21T05:50:15;101759.28;;;15.66;68.21
42105;BME280;70664;51.472;5.712;2024-02-21T05:52:41;101757.56;;;15.67;68.22
42105;BME280;70664;51.472;5.712;2024-02-21T05:55:08;101754.09;;;15.66;68.65
42105;BME280;70664;51.472;5.712;2024-02-21T05:57:34;101754.09;;;15.66;68.25
42105;BME280;70664;51.472;5.712;2024-02-21T06:00:02;101748.06;;;15.66;68.25
42105;BME280;70664;51.472;5.712;2024-02-21T06:02:28;101752.41;;;15.64;68.52
42105;BME280;70664;51.472;5.712;2024-02-21T06:04:54;101750.66;;;15.64;68.37
42105;BME280;70664;51.472;5.712;2024-02-21T06:07:20;101748.06;;;15.64;68.28
42105;BME280;70664;51.472;5.712;2024-02-21T06:09:45;101748.94;;;15.63;68.46
42105;BME280;70664;51.472;5.712;2024-02-21T06:12:11;101743.75;;;15.63;68.52
42105;BME280;70664;51.472;5.712;2024-02-21T06:14:37;101739.44;;;15.62;68.44
42105;BME280;70664;51.472;5.712;2024-02-21T06:17:03;101726.47;;;15.62;68.54
42105;BME280;70664;51.472;5.712;2024-02-21T06:19:29;101728.22;;;15.62;68.61
42105;BME280;70664;51.472;5.712;2024-02-21T06:21:54;101721.31;;;15.61;68.54
42105;BME280;70664;51.472;5.712;2024-02-21T06:24:20;101725.63;;;15.60;68.35
42105;BME280;70664;51.472;5.712;2024-02-21T06:26:46;101718.72;;;15.59;68.22
42105;BME280;70664;51.472;5.712;2024-02-21T06:29:12;101716.97;;;15.60;68.09
42105;BME280;70664;51.472;5.712;2024-02-21T06:31:40;101716.13;;;15.59;68.53
42105;BME280;70664;51.472;5.712;2024-02-21T06:34:06;101712.66;;;15.58;68.13
42105;BME280;70664;51.472;5.712;2024-02-21T06:36:32;101718.72;;;15.59;68.43
42105;BME280;70664;51.472;5.712;2024-02-21T06:38:58;101716.13;;;15.57;68.29
42105;BME280;70664;51.472;5.712;2024-02-21T06:41:24;101715.28;;;15.57;68.62
42105;BME280;70664;51.472;5.712;2024-02-21T06:43:51;101720.47;;;15.57;68.31
42105;BME280;70664;51.472;5.712;2024-02-21T06:46:29;101720.47;;;15.57;68.26
42105;BME280;70664;51.472;5.712;2024-02-21T06:48:56;101722.19;;;15.55;68.23
42105;BME280;70664;51.472;5.712;2024-02-21T06:51:22;101727.38;;;15.55;68.40
42105;BME280;70664;51.472;5.712;2024-02-21T06:53:48;101729.97;;;15.55;68.20
42105;BME280;70664;51.472;5.712;2024-02-21T06:56:14;101724.78;;;15.55;68.49
42105;BME280;70664;51.472;5.712;2024-02-21T06:58:40;101723.06;;;15.54;68.49
42105;BME280;70664;51.472;5.712;2024-02-21T07:01:06;101727.38;;;15.55;68.26
42105;BME280;70664;51.472;5.712;2024-02-21T07:03:32;101725.66;;;15.54;68.19
42105;BME280;70664;51.472;5.712;2024-02-21T07:05:58;101727.38;;;15.53;68.64
42105;BME280;70664;51.472;5.712;2024-02-21T07:08:24;101727.38;;;15.53;68.57
42105;BME280;70664;51.472;5.712;2024-02-21T07:10:50;101725.63;;;15.52;68.29
42105;BME280;70664;51.472;5.712;2024-02-21T07:13:16;101719.59;;;15.52;68.39
42105;BME280;70664;51.472;5.712;2024-02-21T07:15:43;101720.47;;;15.52;68.23
42105;BME280;70664;51.472;5.712;2024-02-21T07:18:09;101716.13;;;15.51;68.47
42105;BME280;70664;51.472;5.712;2024-02-21T07:20:35;101723.06;;;15.51;68.10
42105;BME280;70664;51.472;5.712;2024-02-21T07:23:03;101709.22;;;15.50;68.53
42105;BME280;70664;51.472;5.712;2024-02-21T07:25:29;101709.25;;;15.49;68.50
42105;BME280;70664;51.472;5.712;2024-02-21T07:27:56;101705.78;;;15.50;68.51
42105;BME280;70664;51.472;5.712;2024-02-21T07:30:21;101698.03;;;15.50;68.37
42105;BME280;70664;51.472;5.712;2024-02-21T07:32:50;101701.47;;;15.49;68.50
42105;BME280;70664;51.472;5.712;2024-02-21T07:35:17;101689.38;;;15.49;68.23
42105;BME280;70664;51.472;5.712;2024-02-21T07:37:43;101688.50;;;15.50;68.17
42105;BME280;70664;51.472;5.712;2024-02-21T07:40:16;101691.09;;;15.49;68.23
42105;BME280;70664;51.472;5.712;2024-02-21T07:42:43;101678.16;;;15.47;68.28
42105;BME280;70664;51.472;5.712;2024-02-21T07:45:09;101678.16;;;15.47;68.06
42105;BME280;70664;51.472;5.712;2024-02-21T07:47:36;101678.16;;;15.47;68.27
42105;BME280;70664;51.472;5.712;2024-02-21T07:50:06;101673.84;;;15.46;68.32
42105;BME280;70664;51.472;5.712;2024-02-21T07:52:32;101664.34;;;15.45;68.37
42105;BME280;70664;51.472;5.712;2024-02-21T07:54:58;101654.84;;;15.46;68.16
42105;BME280;70664;51.472;5.712;2024-02-21T07:57:24;101646.22;;;15.45;68.37
42105;BME280;70664;51.472;5.712;2024-02-21T07:59:50;101649.66;;;15.46;68.14
42105;BME280;70664;51.472;5.712;2024-02-21T08:02:16;101642.75;;;15.45;68.04
42105;BME280;70664;51.472;5.712;2024-02-21T08:04:42;101633.25;;;15.45;68.19
42105;BME280;70664;51.472;5.712;2024-02-21T08:07:09;101633.22;;;15.48;68.41
42105;BME280;70664;51.472;5.712;2024-02-21T08:09:35;101627.19;;;15.51;68.21
42105;BME280;70664;51.472;5.712;2024-02-21T08:12:04;101635.78;;;15.51;68.32
42105;BME280;70664;51.472;5.712;2024-02-21T08:14:30;101637.53;;;15.54;68.34
42105;BME280;70664;51.472;5.712;2024-02-21T08:16:56;101624.56;;;15.54;67.97
42105;BME280;70664;51.472;5.712;2024-02-21T08:19:22;101626.28;;;15.58;67.90
42105;BME280;70664;51.472;5.712;2024-02-21T08:21:48;101623.66;;;15.60;67.94
42105;BME280;70664;51.472;5.712;2024-02-21T08:24:14;101619.38;;;15.60;67.62
42105;BME280;70664;51.472;5.712;2024-02-21T08:26:44;101609.84;;;15.61;67.94
42105;BME280;70664;51.472;5.712;2024-02-21T08:29:13;101604.66;;;15.61;67.98
42105;BME280;70664;51.472;5.712;2024-02-21T08:31:39;101607.22;;;15.62;67.97
42105;BME280;70664;51.472;5.712;2024-02-21T08:34:04;101596.84;;;15.62;67.93
42105;BME280;70664;51.472;5.712;2024-02-21T08:36:34;101591.69;;;15.62;67.69
42105;BME280;70664;51.472;5.712;2024-02-21T08:39:01;101583.91;;;15.62;67.96
42105;BME280;70664;51.472;5.712;2024-02-21T08:41:32;101584.78;;;15.63;67.84
42105;BME280;70664;51.472;5.712;2024-02-21T08:43:58;101581.31;;;15.62;67.67
42105;BME280;70664;51.472;5.712;2024-02-21T08:46:24;101583.03;;;15.63;67.94
42105;BME280;70664;51.472;5.712;2024-02-21T08:48:53;101577.00;;;15.63;67.80
42105;BME280;70664;51.472;5.712;2024-02-21T08:51:20;101576.13;;;15.64;68.01
42105;BME280;70664;51.472;5.712;2024-02-21T08:53:47;101571.81;;;15.63;67.85
42105;BME280;70664;51.472;5.712;2024-02-21T08:56:12;101572.66;;;15.63;67.81
42105;BME280;70664;51.472;5.712;2024-02-21T08:58:40;101565.75;;;15.64;68.23
42105;BME280;70664;51.472;5.712;2024-02-21T09:01:06;101563.16;;;15.64;68.20
42105;BME280;70664;51.472;5.712;2024-02-21T09:03:36;101560.56;;;15.65;68.32
42105;BME280;70664;51.472;5.712;2024-02-21T09:06:04;101558.84;;;15.64;68.10
42105;BME280;70664;51.472;5.712;2024-02-21T09:08:30;101555.41;;;15.64;68.27
42105;BME280;70664;51.472;5.712;2024-02-21T09:10:56;101543.28;;;15.66;68.38
42105;BME280;70664;51.472;5.712;2024-02-21T09:13:22;101541.56;;;15.65;67.96
42105;BME280;70664;51.472;5.712;2024-02-21T09:15:49;101537.25;;;15.64;68.31
42105;BME280;70664;51.472;5.712;2024-02-21T09:18:16;101540.69;;;15.64;68.40
42105;BME280;70664;51.472;5.712;2024-02-21T09:20:43;101540.72;;;15.63;68.33
42105;BME280;70664;51.472;5.712;2024-02-21T09:23:09;101542.44;;;15.62;68.38
42105;BME280;70664;51.472;5.712;2024-02-21T09:25:35;101534.66;;;15.61;68.59
42105;BME280;70664;51.472;5.712;2024-02-21T09:28:02;101539.84;;;15.61;68.85
42105;BME280;70664;51.472;5.712;2024-02-21T09:30:29;101551.09;;;15.60;68.74
42105;BME280;70664;51.472;5.712;2024-02-21T09:32:56;101543.34;;;15.58;68.74
42105;BME280;70664;51.472;5.712;2024-02-21T09:35:24;101535.56;;;15.58;69.04
42105;BME280;70664;51.472;5.712;2024-02-21T09:37:52;101538.16;;;15.58;68.99
42105;BME280;70664;51.472;5.712;2024-02-21T09:40:19;101532.97;;;15.58;68.79
42105;BME280;70664;51.472;5.712;2024-02-21T09:42:47;101526.91;;;15.57;68.83
42105;BME280;70664;51.472;5.712;2024-02-21T09:45:20;101514.84;;;15.58;68.84
42105;BME280;70664;51.472;5.712;2024-02-21T09:50:43;101507.94;;;15.57;69.31
42105;BME280;70664;51.472;5.712;2024-02-21T09:53:14;101495.84;;;15.56;69.40
42105;BME280;70664;51.472;5.712;2024-02-21T09:55:41;101489.78;;;15.55;68.69
42105;BME280;70664;51.472;5.712;2024-02-21T09:58:09;101483.75;;;15.55;69.30
42105;BME280;70664;51.472;5.712;2024-02-21T10:00:36;101480.28;;;15.56;69.28
42105;BME280;70664;51.472;5.712;2024-02-21T10:03:02;101476.81;;;15.55;69.43
42105;BME280;70664;51.472;5.712;2024-02-21T10:05:36;101466.47;;;15.57;69.41
42105;BME280;70664;51.472;5.712;2024-02-21T10:08:04;101463.00;;;15.56;69.56
42105;BME280;70664;51.472;5.712;2024-02-21T10:10:31;101452.63;;;15.56;69.65
42105;BME280;70664;51.472;5.712;2024-02-21T10:13:05;101453.50;;;15.55;69.56
42105;BME280;70664;51.472;5.712;2024-02-21T10:15:31;101450.06;;;15.55;69.87
42105;BME280;70664;51.472;5.712;2024-02-21T10:18:01;101448.28;;;15.58;69.91
42105;BME280;70664;51.472;5.712;2024-02-21T10:20:29;101434.47;;;15.58;69.81
42105;BME280;70664;51.472;5.712;2024-02-21T10:23:05;101426.72;;;15.58;69.54
42105;BME280;70664;51.472;5.712;2024-02-21T10:25:35;101414.63;;;15.57;69.92
42105;BME280;70664;51.472;5.712;2024-02-21T10:28:04;101413.75;;;15.56;70.05
42105;BME280;70664;51.472;5.712;2024-02-21T10:30:30;101399.06;;;15.55;70.05
42105;BME280;70664;51.472;5.712;2024-02-21T10:32:56;101399.06;;;15.55;70.02
42105;BME280;70664;51.472;5.712;2024-02-21T10:35:31;101388.69;;;15.55;70.09
42105;BME280;70664;51.472;5.712;2024-02-21T10:37:58;101380.09;;;15.55;70.52
42105;BME280;70664;51.472;5.712;2024-02-21T10:40:25;101376.63;;;15.56;70.15
42105;BME280;70664;51.472;5.712;2024-02-21T10:43:00;101369.72;;;15.55;70.37
42105;BME280;70664;51.472;5.712;2024-02-21T10:45:35;101355.91;;;15.53;70.68
42105;BME280;70664;51.472;5.712;2024-02-21T10:58:46;101291.13;;;15.53;70.22
42105;BME280;70664;51.472;5.712;2024-02-21T11:01:13;101281.63;;;15.52;70.44
42105;BME280;70664;51.472;5.712;2024-02-21T11:03:42;101287.66;;;15.52;70.21
42105;BME280;70664;51.472;5.712;2024-02-21T11:06:11;101295.47;;;15.51;70.56
42105;BME280;70664;51.472;5.712;2024-02-21T11:08:37;101292.00;;;15.52;70.47
42105;BME280;70664;51.472;5.712;2024-02-21T11:11:05;101291.13;;;15.51;70.29
42105;BME280;70664;51.472;5.712;2024-02-21T11:13:40;101302.34;;;15.50;70.11
42105;BME280;70664;51.472;5.712;2024-02-21T11:16:23;101306.66;;;15.51;70.50
42105;BME280;70664;51.472;5.712;2024-02-21T11:18:49;101298.91;;;15.50;70.42
42105;BME280;70664;51.472;5.712;2024-02-21T11:21:15;101299.75;;;15.50;70.57
42105;BME280;70664;51.472;5.712;2024-02-21T11:23:41;101301.50;;;15.50;70.40
42105;BME280;70664;51.472;5.712;2024-02-21T11:26:09;101286.81;;;15.50;70.13
42105;BME280;70664;51.472;5.712;2024-02-21T11:28:36;101268.69;;;15.49;70.11
42105;BME280;70664;51.472;5.712;2024-02-21T11:31:12;101259.16;;;15.52;70.05
42105;BME280;70664;51.472;5.712;2024-02-21T11:33:42;101253.97;;;15.54;70.13
42105;BME280;70664;51.472;5.712;2024-02-21T11:36:11;101245.31;;;15.53;70.23
42105;BME280;70664;51.472;5.712;2024-02-21T11:38:37;101245.31;;;15.55;70.04
42105;BME280;70664;51.472;5.712;2024-02-21T11:41:03;101244.44;;;15.56;69.81
42105;BME280;70664;51.472;5.712;2024-02-21T11:43:33;101236.66;;;15.56;70.02
42105;BME280;70664;51.472;5.712;2024-02-21T11:46:02;101226.31;;;15.56;69.81
42105;BME280;70664;51.472;5.712;2024-02-21T11:48:31;101204.66;;;15.58;69.67
42105;BME280;70664;51.472;5.712;2024-02-21T11:50:57;101200.31;;;15.61;69.61
42105;BME280;70664;51.472;5.712;2024-02-21T11:53:24;101202.00;;;15.65;69.71
42105;BME280;70664;51.472;5.712;2024-02-21T11:55:50;101195.94;;;15.66;69.55
42105;BME280;70664;51.472;5.712;2024-02-21T11:58:16;101198.53;;;15.66;69.05
42105;BME280;70664;51.472;5.712;2024-02-21T12:00:42;101195.06;;;15.65;69.00
42105;BME280;70664;51.472;5.712;2024-02-21T12:03:08;101195.06;;;15.65;69.16
42105;BME280;70664;51.472;5.712;2024-02-21T12:05:34;101195.06;;;15.65;68.89
42105;BME280;70664;51.472;5.712;2024-02-21T12:08:00;101189.88;;;15.65;68.84
42105;BME280;70664;51.472;5.712;2024-02-21T12:10:27;101175.22;;;15.66;69.18
42105;BME280;70664;51.472;5.712;2024-02-21T12:13:08;101165.66;;;15.69;68.92
42105;BME280;70664;51.472;5.712;2024-02-21T12:15:35;101150.94;;;15.71;68.84
42105;BME280;70664;51.472;5.712;2024-02-21T12:18:00;101132.75;;;15.75;69.10
42105;BME280;70664;51.472;5.712;2024-02-21T12:20:27;101127.53;;;15.76;67.90
42105;BME280;70664;51.472;5.712;2024-02-21T12:22:52;101119.75;;;15.78;67.56
42105;BME280;70664;51.472;5.712;2024-02-21T12:25:23;101116.28;;;15.79;68.02
42105;BME280;70664;51.472;5.712;2024-02-21T12:27:51;101113.56;;;15.90;68.02
42105;BME280;70664;51.472;5.712;2024-02-21T12:30:18;101110.88;;;15.96;66.92
42105;BME280;70664;51.472;5.712;2024-02-21T12:32:45;101110.94;;;15.91;67.43
42105;BME280;70664;51.472;5.712;2024-02-21T12:35:11;101100.63;;;15.88;67.65
42105;BME280;70664;51.472;5.712;2024-02-21T12:37:37;101092.84;;;15.88;67.96
42105;BME280;70664;51.472;5.712;2024-02-21T12:40:08;101073.84;;;15.87;67.92
42105;BME280;70664;51.472;5.712;2024-02-21T12:42:35;101066.06;;;15.87;68.30
42105;BME280;70664;51.472;5.712;2024-02-21T12:45:03;101059.09;;;15.90;68.13
42105;BME280;70664;51.472;5.712;2024-02-21T12:47:29;101051.38;;;15.88;68.28
42105;BME280;70664;51.472;5.712;2024-02-21T12:49:55;101044.47;;;15.87;68.42
42105;BME280;70664;51.472;5.712;2024-02-21T12:52:21;101037.56;;;15.86;68.52
42105;BME280;70664;51.472;5.712;2024-02-21T12:54:47;101022.00;;;15.86;68.47
42105;BME280;70664;51.472;5.712;2024-02-21T12:57:13;101015.94;;;15.87;68.52
42105;BME280;70664;51.472;5.712;2024-02-21T12:59:39;101005.56;;;15.87;68.55
42105;BME280;70664;51.472;5.712;2024-02-21T13:02:05;101001.22;;;15.87;68.38
42105;BME280;70664;51.472;5.712;2024-02-21T13:04:31;100996.03;;;15.87;68.51